createdAt,value
2023-02-06T00:00:43.226Z,103558.41
2023-02-06T00:03:45.790Z,103563.59
2023-02-06T00:06:47.245Z,103552.09
2023-02-06T00:09:49.749Z,103565.59
2023-02-06T00:12:51.797Z,103563.97
2023-02-06T00:15:54.571Z,103580.09
2023-02-06T00:18:58.781Z,103588.50
2023-02-06T00:22:00.374Z,103588.50
2023-02-06T00:25:03.446Z,103599.94
2023-02-06T00:28:05.668Z,103607.28
2023-02-06T00:31:09.288Z,103584.94
2023-02-06T00:34:10.842Z,103603.38
2023-02-06T00:37:13.439Z,103599.94
2023-02-06T00:40:14.757Z,103593.59
2023-02-06T00:43:18.460Z,103576.44
2023-02-06T00:46:20.159Z,103584.50
2023-02-06T00:49:22.708Z,103583.63
2023-02-06T00:52:25.237Z,103580.84
2023-02-06T00:55:27.812Z,103589.00
2023-02-06T00:58:29.878Z,103580.28
2023-02-06T01:01:32.579Z,103585.34
2023-02-06T01:04:33.855Z,103586.22
2023-02-06T01:07:39.197Z,103591.69
2023-02-06T01:10:42.244Z,103590.81
2023-02-06T01:13:44.154Z,103582.09
2023-02-06T01:16:46.707Z,103572.59
2023-02-06T01:19:49.280Z,103575.19
2023-02-06T01:22:52.437Z,103586.00
2023-02-06T01:25:53.723Z,103578.72
2023-02-06T01:28:57.453Z,103579.69
2023-02-06T01:32:00.002Z,103571.63
2023-02-06T01:35:01.362Z,103564.66
2023-02-06T01:38:03.932Z,103567.44
2023-02-06T01:41:06.858Z,103554.31
2023-02-06T01:44:15.398Z,103547.28
2023-02-06T01:47:18.995Z,103544.50
2023-02-06T01:50:20.304Z,103528.50
2023-02-06T01:53:24.073Z,103524.00
2023-02-06T01:56:30.659Z,103526.31
2023-02-06T01:59:33.811Z,103513.94
2023-02-06T02:02:39.972Z,103518.25
2023-02-06T02:05:43.311Z,103509.25
2023-02-06T02:12:08.250Z,103510.09
2023-02-06T02:15:11.590Z,103515.56
2023-02-06T02:18:36.285Z,103499.38
2023-02-06T02:22:02.618Z,103503.66
2023-02-06T02:25:27.803Z,103497.22
2023-02-06T02:29:05.412Z,103509.75
2023-02-06T02:32:37.458Z,103498.53
2023-02-06T02:35:51.764Z,103487.91
2023-02-06T02:39:03.039Z,103484.63
2023-02-06T02:42:12.765Z,103481.31
2023-02-06T02:45:20.678Z,103476.41
2023-02-06T02:48:24.851Z,103474.91
2023-02-06T02:51:28.131Z,103475.69
2023-02-06T02:54:29.888Z,103484.41
2023-02-06T02:57:33.224Z,103464.13
2023-02-06T03:00:40.838Z,103461.75
2023-02-06T03:03:45.652Z,103462.75
2023-02-06T03:07:04.400Z,103467.72
2023-02-06T03:10:12.835Z,103477.28
2023-02-06T03:13:23.641Z,103479.66
2023-02-06T03:16:32.888Z,103482.69
2023-02-06T03:19:40.951Z,103486.88
2023-02-06T03:22:47.008Z,103479.44
2023-02-06T03:25:53.914Z,103477.22
2023-02-06T03:29:00.850Z,103468.69
2023-02-06T03:32:08.160Z,103467.19
2023-02-06T03:35:17.175Z,103475.25
2023-02-06T03:38:19.167Z,103470.53
2023-02-06T03:41:25.952Z,103461.16
2023-02-06T03:44:33.591Z,103458.38
2023-02-06T03:47:39.164Z,103450.06
2023-02-06T03:50:43.894Z,103456.88
2023-02-06T03:53:50.684Z,103469.75
2023-02-06T03:56:55.624Z,103477.94
2023-02-06T03:59:57.042Z,103479.53
2023-02-06T04:02:59.637Z,103465.84
2023-02-06T04:06:02.354Z,103468.25
2023-02-06T04:09:04.481Z,103477.28
2023-02-06T04:12:07.592Z,103471.69
2023-02-06T04:15:09.584Z,103465.19
2023-02-06T04:18:12.080Z,103461.22
2023-02-06T04:21:13.355Z,103469.59
2023-02-06T04:24:16.653Z,103445.03
2023-02-06T04:27:18.090Z,103456.34
2023-02-06T04:30:20.726Z,103457.09
2023-02-06T04:33:22.018Z,103452.34
2023-02-06T04:36:24.671Z,103449.59
2023-02-06T04:39:28.546Z,103449.88
2023-02-06T04:42:31.138Z,103438.13
2023-02-06T04:45:32.457Z,103436.75
2023-02-06T04:48:33.923Z,103419.75
2023-02-06T04:51:37.046Z,103418.34
2023-02-06T04:54:40.249Z,103426.13
2023-02-06T04:57:42.976Z,103436.19
2023-02-06T05:00:44.267Z,103427.16
2023-02-06T05:03:46.937Z,103418.19
2023-02-06T05:06:48.270Z,103420.44
2023-02-06T05:09:50.265Z,103429.75
2023-02-06T05:12:52.866Z,103424.75
2023-02-06T05:15:54.244Z,103424.50
2023-02-06T05:18:57.943Z,103429.69
2023-02-06T05:21:59.276Z,103435.81
2023-02-06T05:25:02.675Z,103441.59
2023-02-06T05:28:06.619Z,103431.78
2023-02-06T05:31:09.481Z,103437.31
2023-02-06T05:34:10.795Z,103418.44
2023-02-06T05:37:13.761Z,103426.66
2023-02-06T05:40:17.417Z,103428.88
2023-02-06T05:43:20.022Z,103423.28
2023-02-06T05:46:21.358Z,103437.47
2023-02-06T05:49:23.961Z,103426.59
2023-02-06T05:52:25.248Z,103431.00
2023-02-06T06:02:10.699Z,103444.94
2023-02-06T06:05:12.026Z,103443.00
2023-02-06T06:08:15.521Z,103445.81
2023-02-06T06:11:17.481Z,103450.72
2023-02-06T06:14:18.865Z,103459.22
2023-02-06T06:17:20.962Z,103457.44
2023-02-06T06:20:23.992Z,103468.53
2023-02-06T06:23:25.292Z,103469.28
2023-02-06T06:26:27.539Z,103472.28
2023-02-06T06:29:29.194Z,103470.56
2023-02-06T06:32:30.482Z,103465.91
2023-02-06T06:35:32.198Z,103462.34
2023-02-06T06:38:34.046Z,103469.34
2023-02-06T06:41:45.643Z,103461.78
2023-02-06T06:44:48.192Z,103448.94
2023-02-06T06:47:49.492Z,103457.66
2023-02-06T06:50:52.028Z,103453.97
2023-02-06T06:53:53.296Z,103462.47
2023-02-06T06:56:56.513Z,103460.03
2023-02-06T06:59:58.164Z,103456.84
2023-02-06T07:02:59.498Z,103437.72
2023-02-06T07:06:00.896Z,103445.19
2023-02-06T07:09:02.197Z,103446.69
2023-02-06T07:12:05.146Z,103451.50
2023-02-06T07:15:07.276Z,103446.72
2023-02-06T07:18:11.378Z,103456.41
2023-02-06T07:21:15.091Z,103453.50
2023-02-06T07:24:16.377Z,103452.91
2023-02-06T07:27:18.900Z,103453.78
2023-02-06T07:30:21.843Z,103467.66
2023-02-06T07:33:23.158Z,103461.00
2023-02-06T07:36:25.691Z,103464.41
2023-02-06T07:39:27.244Z,103473.16
2023-02-06T07:42:29.207Z,103472.56
2023-02-06T07:45:31.077Z,103467.66
2023-02-06T07:48:32.638Z,103470.22
2023-02-06T07:51:35.705Z,103468.03
2023-02-06T07:54:37.021Z,103457.63
2023-02-06T07:57:40.221Z,103455.38
2023-02-06T08:00:41.650Z,103454.69
2023-02-06T08:03:42.985Z,103459.06
2023-02-06T08:06:46.075Z,103469.34
2023-02-06T08:09:47.648Z,103466.41
2023-02-06T08:12:50.801Z,103473.78
2023-02-06T08:15:52.321Z,103477.81
2023-02-06T08:18:54.857Z,103462.03
2023-02-06T08:21:56.311Z,103464.97
2023-02-06T08:24:57.912Z,103465.34
2023-02-06T08:28:00.181Z,103457.00
2023-02-06T08:31:08.498Z,103458.97
2023-02-06T08:34:13.840Z,103466.72
2023-02-06T08:37:15.359Z,103463.69
2023-02-06T08:40:17.270Z,103464.78
2023-02-06T08:43:19.245Z,103460.13
2023-02-06T08:46:22.332Z,103462.94
2023-02-06T08:49:26.115Z,103461.97
2023-02-06T08:52:28.581Z,103474.34
2023-02-06T08:55:30.113Z,103459.75
2023-02-06T08:58:33.985Z,103466.50
2023-02-06T09:01:36.629Z,103470.94
2023-02-06T09:04:39.552Z,103464.19
2023-02-06T09:07:41.134Z,103468.13
2023-02-06T09:10:43.805Z,103473.88
2023-02-06T09:13:49.133Z,103480.75
2023-02-06T09:16:51.974Z,103480.00
2023-02-06T09:19:53.272Z,103468.72
2023-02-06T09:22:54.522Z,103480.25
2023-02-06T09:25:55.872Z,103490.22
2023-02-06T09:29:00.788Z,103490.34
2023-02-06T09:32:02.107Z,103492.41
2023-02-06T09:35:05.178Z,103508.63
2023-02-06T09:38:06.466Z,103511.31
2023-02-06T09:41:17.034Z,103512.91
2023-02-06T09:44:23.635Z,103509.22
2023-02-06T09:47:28.428Z,103519.28
2023-02-06T09:50:40.645Z,103517.97
2023-02-06T09:53:54.410Z,103515.84
2023-02-06T09:57:06.358Z,103511.91
2023-02-06T10:00:17.938Z,103516.59
2023-02-06T10:03:48.588Z,103508.75
2023-02-06T10:06:57.200Z,103514.75
2023-02-06T10:10:03.784Z,103526.78
2023-02-06T10:13:13.166Z,103528.72
2023-02-06T10:16:32.291Z,103540.25
2023-02-06T10:19:42.911Z,103541.25
2023-02-06T10:22:51.797Z,103532.38
2023-02-06T10:26:03.501Z,103536.41
2023-02-06T10:29:06.205Z,103537.91
2023-02-06T10:32:21.593Z,103539.75
2023-02-06T10:35:32.515Z,103534.69
2023-02-06T10:38:51.992Z,103525.44
2023-02-06T10:42:02.200Z,103525.56
2023-02-06T10:45:57.326Z,103526.78
2023-02-06T10:49:04.484Z,103517.81
2023-02-06T10:52:17.844Z,103513.94
2023-02-06T10:55:22.985Z,103516.91
2023-02-06T10:58:28.355Z,103513.25
2023-02-06T11:01:35.251Z,103525.22
2023-02-06T11:04:39.923Z,103515.09
2023-02-06T11:07:44.655Z,103504.22
2023-02-06T11:10:46.236Z,103533.00
2023-02-06T11:13:50.312Z,103536.25
2023-02-06T11:16:53.688Z,103536.22
2023-02-06T11:20:04.455Z,103527.72
2023-02-06T11:23:15.719Z,103534.78
2023-02-06T11:26:20.222Z,103528.81
2023-02-06T11:29:24.946Z,103534.34
2023-02-06T11:32:35.374Z,103534.00
2023-02-06T11:35:40.657Z,103536.69
2023-02-06T11:38:55.408Z,103545.09
2023-02-06T11:41:59.297Z,103544.81
2023-02-06T11:45:18.119Z,103540.28
2023-02-06T11:48:38.657Z,103543.81
2023-02-06T11:51:52.004Z,103536.38
2023-02-06T11:54:55.239Z,103538.38
2023-02-06T11:58:07.987Z,103538.75
2023-02-06T12:01:18.331Z,103540.31
2023-02-06T12:04:25.391Z,103545.59
2023-02-06T12:07:32.912Z,103545.78
2023-02-06T12:10:40.171Z,103541.75
2023-02-06T12:13:47.221Z,103548.38
2023-02-06T12:16:50.452Z,103550.03
2023-02-06T12:20:09.274Z,103550.66
2023-02-06T12:23:18.793Z,103547.94
2023-02-06T12:26:24.594Z,103558.06
2023-02-06T12:29:29.947Z,103553.34
2023-02-06T12:32:34.325Z,103550.78
2023-02-06T12:35:45.086Z,103556.69
2023-02-06T12:38:52.535Z,103575.13
2023-02-06T12:42:10.907Z,103563.44
2023-02-06T12:45:28.218Z,103564.94
2023-02-06T12:48:38.151Z,103562.91
2023-02-06T12:51:50.762Z,103577.97
2023-02-06T12:55:00.010Z,103584.94
2023-02-06T12:58:02.481Z,103583.72
2023-02-06T13:01:33.033Z,103585.06
2023-02-06T13:04:38.053Z,103586.78
2023-02-06T13:07:49.328Z,103582.75
2023-02-06T13:11:02.127Z,103586.31
2023-02-06T13:14:06.867Z,103593.44
2023-02-06T13:17:12.098Z,103578.72
2023-02-06T13:20:16.122Z,103585.84
2023-02-06T13:23:22.884Z,103586.31
2023-02-06T13:26:57.867Z,103595.53
2023-02-06T13:30:37.136Z,103594.41
2023-02-06T13:33:41.691Z,103584.84
2023-02-06T13:36:49.786Z,103586.91
2023-02-06T13:40:18.389Z,103585.16
2023-02-06T13:43:26.805Z,103590.19
2023-02-06T13:46:51.607Z,103587.97
2023-02-06T13:50:28.698Z,103587.44
2023-02-06T13:53:46.269Z,103594.31
2023-02-06T13:57:11.323Z,103599.84
2023-02-06T14:00:17.346Z,103592.56
2023-02-06T14:03:25.081Z,103580.69
2023-02-06T14:06:46.896Z,103592.00
2023-02-06T14:10:20.617Z,103607.91
2023-02-06T14:13:45.660Z,103617.28
2023-02-06T14:16:55.315Z,103619.19
2023-02-06T14:20:08.417Z,103626.31
2023-02-06T14:23:20.018Z,103637.53
2023-02-06T14:26:32.135Z,103637.00
2023-02-06T14:29:44.809Z,103636.13
2023-02-06T14:32:57.800Z,103648.78
2023-02-06T14:36:14.438Z,103642.66
2023-02-06T14:39:40.831Z,103648.44
2023-02-06T14:42:44.973Z,103648.56
2023-02-06T14:46:05.532Z,103656.22
2023-02-06T14:49:16.054Z,103670.69
2023-02-06T14:52:21.603Z,103672.69
2023-02-06T14:55:34.576Z,103677.84
2023-02-06T14:58:36.098Z,103673.91
2023-02-06T15:01:37.563Z,103684.22
2023-02-06T15:04:46.836Z,103686.34
2023-02-06T15:07:57.151Z,103690.41
2023-02-06T15:11:01.454Z,103690.41
2023-02-06T15:14:05.787Z,103693.50
2023-02-06T15:17:08.150Z,103696.69
2023-02-06T15:20:25.732Z,103692.50
2023-02-06T15:23:43.346Z,103688.81
2023-02-06T15:26:53.597Z,103693.75
2023-02-06T15:29:55.671Z,103698.16
2023-02-06T15:32:58.160Z,103704.44
2023-02-06T15:36:02.578Z,103714.13
2023-02-06T15:39:06.993Z,103709.47
2023-02-06T15:42:10.279Z,103705.91
2023-02-06T15:45:19.544Z,103711.06
2023-02-06T15:48:25.262Z,103719.16
2023-02-06T15:51:29.371Z,103727.03
2023-02-06T15:54:33.775Z,103735.72
2023-02-06T15:57:40.305Z,103742.59
2023-02-06T16:00:43.199Z,103746.28
2023-02-06T16:03:45.333Z,103747.63
2023-02-06T16:06:58.486Z,103732.41
2023-02-06T16:10:06.244Z,103744.16
2023-02-06T16:13:12.206Z,103744.66
2023-02-06T16:16:20.036Z,103749.31
2023-02-06T16:19:38.189Z,103737.59
2023-02-06T16:22:39.598Z,103748.84
2023-02-06T16:25:41.828Z,103753.41
2023-02-06T16:28:54.547Z,103753.28
2023-02-06T16:31:59.562Z,103754.19
2023-02-06T16:38:21.782Z,103753.63
2023-02-06T16:41:29.836Z,103757.69
2023-02-06T16:44:44.081Z,103770.66
2023-02-06T16:47:47.803Z,103772.84
2023-02-06T16:50:49.241Z,103778.28
2023-02-06T16:53:52.662Z,103785.53
2023-02-06T16:56:56.985Z,103784.25
2023-02-06T16:59:58.539Z,103787.94
2023-02-06T17:03:00.227Z,103770.75
2023-02-06T17:06:02.659Z,103776.50
2023-02-06T17:09:08.324Z,103782.44
2023-02-06T17:12:13.119Z,103781.94
2023-02-06T17:15:15.560Z,103777.94
2023-02-06T17:18:18.210Z,103786.28
2023-02-06T17:21:28.954Z,103790.72
2023-02-06T17:24:30.236Z,103790.84
2023-02-06T17:27:32.438Z,103800.75
2023-02-06T17:30:35.414Z,103810.91
2023-02-06T17:33:38.178Z,103805.00
2023-02-06T17:36:41.158Z,103797.22
2023-02-06T17:39:43.527Z,103808.34
2023-02-06T17:42:46.670Z,103811.91
2023-02-06T17:45:49.079Z,103808.00
2023-02-06T17:48:51.448Z,103802.41
2023-02-06T17:51:53.767Z,103804.34
2023-02-06T17:54:55.121Z,103813.84
2023-02-06T17:57:58.149Z,103807.72
2023-02-06T18:01:00.653Z,103801.88
2023-02-06T18:04:03.378Z,103800.38
2023-02-06T18:07:05.794Z,103801.53
2023-02-06T18:10:07.980Z,103808.97
2023-02-06T18:13:10.992Z,103791.06
2023-02-06T18:16:14.554Z,103792.16
2023-02-06T18:19:19.330Z,103796.91
2023-02-06T18:22:22.679Z,103788.03
2023-02-06T18:25:25.041Z,103801.72
2023-02-06T18:28:28.168Z,103798.28
2023-02-06T18:31:32.493Z,103787.06
2023-02-06T18:34:35.483Z,103783.91
2023-02-06T18:37:37.990Z,103783.69
2023-02-06T18:40:42.103Z,103788.31
2023-02-06T18:43:45.115Z,103791.00
2023-02-06T18:46:46.490Z,103779.00
2023-02-06T18:49:47.973Z,103787.00
2023-02-06T18:52:50.268Z,103794.31
2023-02-06T18:55:58.122Z,103793.56
2023-02-06T18:59:01.332Z,103798.50
2023-02-06T19:02:04.102Z,103793.88
2023-02-06T19:05:07.151Z,103789.84
2023-02-06T19:08:08.432Z,103808.78
2023-02-06T19:11:10.281Z,103805.88
2023-02-06T19:14:16.086Z,103809.59
2023-02-06T19:17:17.371Z,103806.16
2023-02-06T19:23:39.839Z,103829.50
2023-02-06T19:26:42.844Z,103837.91
2023-02-06T19:29:45.058Z,103837.91
2023-02-06T19:32:49.175Z,103848.00
2023-02-06T19:35:51.468Z,103847.63
2023-02-06T19:38:56.052Z,103848.09
2023-02-06T19:41:57.325Z,103834.09
2023-02-06T19:45:00.594Z,103850.72
2023-02-06T19:48:01.931Z,103858.59
2023-02-06T19:54:25.595Z,103848.44
2023-02-06T19:57:28.264Z,103845.34
2023-02-06T20:00:31.485Z,103846.41
2023-02-06T20:03:33.158Z,103839.88
2023-02-06T20:06:38.531Z,103836.72
2023-02-06T20:09:41.991Z,103841.22
2023-02-06T20:12:44.783Z,103830.56
2023-02-06T20:19:09.941Z,103854.47
2023-02-06T20:22:12.582Z,103853.91
2023-02-06T20:25:14.045Z,103843.06
2023-02-06T20:28:16.760Z,103840.72
2023-02-06T20:31:19.960Z,103839.41
2023-02-06T20:34:21.764Z,103836.72
2023-02-06T20:37:23.740Z,103843.31
2023-02-06T20:40:25.040Z,103841.59
2023-02-06T20:43:26.488Z,103840.81
2023-02-06T20:46:31.817Z,103835.84
2023-02-06T20:49:33.355Z,103836.84
2023-02-06T20:52:36.575Z,103823.31
2023-02-06T20:55:40.897Z,103826.41
2023-02-06T20:58:43.119Z,103846.28
2023-02-06T21:01:45.249Z,103845.44
2023-02-06T21:04:47.809Z,103849.63
2023-02-06T21:07:50.359Z,103842.00
2023-02-06T21:10:52.397Z,103859.28
2023-02-06T21:13:53.726Z,103869.94
2023-02-06T21:16:56.121Z,103863.88
2023-02-06T21:19:57.521Z,103864.44
2023-02-06T21:23:00.043Z,103876.91
2023-02-06T21:26:01.510Z,103869.69
2023-02-06T21:29:03.764Z,103864.34
2023-02-06T21:32:13.726Z,103863.97
2023-02-06T21:35:16.915Z,103863.16
2023-02-06T21:38:19.955Z,103854.25
2023-02-06T21:41:21.296Z,103868.22
2023-02-06T21:44:23.833Z,103871.00
2023-02-06T21:47:25.845Z,103885.28
2023-02-06T21:50:28.534Z,103881.19
2023-02-06T21:53:31.053Z,103875.84
2023-02-06T21:56:32.372Z,103865.00
2023-02-06T21:59:34.905Z,103876.03
2023-02-06T22:02:37.687Z,103879.06
2023-02-06T22:05:40.597Z,103875.34
2023-02-06T22:08:43.629Z,103876.28
2023-02-06T22:11:46.560Z,103878.28
2023-02-06T22:14:47.878Z,103875.53
2023-02-06T22:17:49.833Z,103875.53
2023-02-06T22:21:03.598Z,103876.63
2023-02-06T22:24:08.126Z,103872.69
2023-02-06T22:27:09.674Z,103865.66
2023-02-06T22:30:13.283Z,103871.44
2023-02-06T22:33:15.269Z,103877.59
2023-02-06T22:36:20.202Z,103885.84
2023-02-06T22:39:22.760Z,103887.97
2023-02-06T22:42:24.081Z,103875.97
2023-02-06T22:45:26.648Z,103868.94
2023-02-06T22:48:28.758Z,103873.34
2023-02-06T22:51:31.353Z,103871.38
2023-02-06T22:54:32.617Z,103877.06
2023-02-06T22:57:37.642Z,103882.34
2023-02-06T23:04:02.895Z,103885.13
2023-02-06T23:07:05.906Z,103879.25
2023-02-06T23:10:08.772Z,103880.88
2023-02-06T23:13:10.066Z,103890.22
2023-02-06T23:16:12.996Z,103890.22
2023-02-06T23:19:15.284Z,103888.94
2023-02-06T23:22:24.939Z,103888.84
2023-02-06T23:25:27.589Z,103894.03
2023-02-06T23:28:29.167Z,103903.97
2023-02-06T23:31:32.401Z,103910.97
2023-02-06T23:34:34.369Z,103914.53
2023-02-06T23:37:36.939Z,103921.88
2023-02-06T23:40:39.682Z,103926.91
2023-02-06T23:43:42.213Z,103919.88
2023-02-06T23:46:44.761Z,103928.03
2023-02-06T23:49:46.722Z,103927.25
2023-02-06T23:52:49.545Z,103930.97
2023-02-06T23:55:52.277Z,103937.97
2023-02-06T23:58:54.619Z,103930.00
